Time;durP1;ratioP1;P1;durP2;ratioP2;P2;SDS_P1;SDS_P2;PMS_P1;PMS_P2;Temp;Humidity;BMP_temperature;BMP_pressure;BME280_temperature;BME280_humidity;BME280_pressure;Samples;Min_cycle;Max_cycle;Signal;HPM_P1;HPM_P2
2021/04/24 00:00:07;;;;;;;17.40;16.13;;;8.00;89.00;;;;;;5071631;28;20464;-68
2021/04/24 00:02:33;;;;;;;17.30;16.30;;;8.00;89.60;;;;;;5071904;28;20446;-68
2021/04/24 00:04:59;;;;;;;19.20;17.70;;;8.00;90.10;;;;;;5071906;28;20439;-69
2021/04/24 00:07:25;;;;;;;18.30;17.00;;;7.90;90.30;;;;;;5071796;28;20454;-69
2021/04/24 00:09:52;;;;;;;17.23;16.00;;;7.90;90.70;;;;;;5071384;28;20952;-69
2021/04/24 00:12:19;;;;;;;18.10;16.70;;;7.90;90.60;;;;;;5071805;28;20439;-68
2021/04/24 00:14:45;;;;;;;18.60;17.20;;;7.80;91.00;;;;;;5071549;28;20917;-69
2021/04/24 00:17:11;;;;;;;18.10;17.00;;;7.70;90.90;;;;;;5071798;28;21104;-69
2021/04/24 00:19:37;;;;;;;18.13;16.83;;;7.70;91.10;;;;;;5071457;28;20473;-69
2021/04/24 00:22:04;;;;;;;18.77;17.27;;;7.70;91.30;;;;;;5071588;28;20454;-69
2021/04/24 00:24:30;;;;;;;18.17;16.97;;;7.60;91.40;;;;;;5071500;28;20447;-69
2021/04/24 00:26:57;;;;;;;18.37;17.27;;;7.60;91.80;;;;;;5071518;28;20440;-69
2021/04/24 00:29:23;;;;;;;17.57;16.27;;;7.50;92.00;;;;;;5071272;28;20940;-69
2021/04/24 00:31:49;;;;;;;17.93;16.83;;;7.50;92.30;;;;;;5071459;28;20493;-69
2021/04/24 00:34:15;;;;;;;19.50;17.90;;;7.50;92.40;;;;;;5071501;28;20895;-69
2021/04/24 00:36:42;;;;;;;16.40;15.50;;;7.40;92.70;;;;;;5071417;28;20455;-69
2021/04/24 00:39:08;;;;;;;17.47;16.37;;;7.30;93.20;;;;;;5071265;28;20973;-69
2021/04/24 00:41:35;;;;;;;17.50;16.00;;;7.30;93.40;;;;;;5071271;28;20478;-68
2021/04/24 00:44:02;;;;;;;16.97;15.87;;;7.20;93.40;;;;;;5071437;28;20953;-69
2021/04/24 00:46:28;;;;;;;17.50;16.20;;;7.20;93.70;;;;;;5071295;28;20450;-69
2021/04/24 00:48:54;;;;;;;17.40;16.10;;;7.20;93.90;;;;;;5071218;28;20439;-69
2021/04/24 00:51:20;;;;;;;17.90;16.30;;;7.10;94.00;;;;;;5071248;28;20463;-69
2021/04/24 00:53:46;;;;;;;17.53;16.33;;;7.10;94.10;;;;;;5070988;28;20486;-69
2021/04/24 00:56:13;;;;;;;18.03;16.77;;;7.10;94.60;;;;;;5071360;28;20999;-69
2021/04/24 00:58:39;;;;;;;17.23;16.10;;;7.10;94.50;;;;;;5070925;28;20450;-69
2021/04/24 01:01:06;;;;;;;19.60;17.97;;;7.00;94.60;;;;;;5072129;28;20463;-69
2021/04/24 01:03:33;;;;;;;16.70;15.50;;;6.90;94.60;;;;;;5075261;28;20484;-69
2021/04/24 01:06:00;;;;;;;17.47;16.07;;;6.90;94.90;;;;;;5075248;28;20439;-69
2021/04/24 01:08:26;;;;;;;16.20;15.20;;;6.80;95.00;;;;;;5074922;28;20443;-69
2021/04/24 01:10:52;;;;;;;15.77;14.87;;;6.80;95.50;;;;;;5074839;28;20489;-68
2021/04/24 01:13:19;;;;;;;16.97;15.90;;;6.80;95.60;;;;;;5074946;28;20785;-69
2021/04/24 01:15:47;;;;;;;16.27;15.07;;;6.70;95.70;;;;;;5074919;28;20439;-69
2021/04/24 01:18:15;;;;;;;15.10;14.23;;;6.80;95.40;;;;;;5074694;28;20442;-69
2021/04/24 01:20:41;;;;;;;15.93;14.83;;;6.70;95.30;;;;;;5074791;28;20459;-69
2021/04/24 01:23:09;;;;;;;17.50;15.93;;;6.70;95.40;;;;;;5074826;28;20905;-69
2021/04/24 01:25:37;;;;;;;14.97;14.17;;;6.70;95.20;;;;;;5074852;28;20932;-69
2021/04/24 01:28:05;;;;;;;14.90;13.90;;;6.70;95.00;;;;;;5074538;28;20409;-69
2021/04/24 01:30:35;;;;;;;15.60;14.60;;;6.70;95.20;;;;;;5074735;28;20468;-69
2021/04/24 01:33:02;;;;;;;15.60;14.50;;;6.70;95.20;;;;;;5074543;28;20446;-69
2021/04/24 01:35:31;;;;;;;15.03;14.10;;;6.70;95.20;;;;;;5074560;28;20502;-68
2021/04/24 01:37:58;;;;;;;15.83;14.70;;;6.60;95.10;;;;;;5074383;28;20435;-69
2021/04/24 01:40:26;;;;;;;14.93;14.03;;;6.60;95.20;;;;;;5074434;28;20459;-68
2021/04/24 01:42:52;;;;;;;17.03;15.63;;;6.60;95.00;;;;;;5074467;28;20439;-69
2021/04/24 01:45:20;;;;;;;14.47;13.40;;;6.60;95.40;;;;;;5074529;28;20560;-68
2021/04/24 01:47:48;;;;;;;14.23;13.50;;;6.60;95.20;;;;;;5074245;28;20443;-69
2021/04/24 01:50:17;;;;;;;15.03;13.93;;;6.60;95.00;;;;;;5074244;28;20466;-69
2021/04/24 01:52:45;;;;;;;15.27;14.23;;;6.60;95.10;;;;;;5074300;28;20467;-69
2021/04/24 01:55:15;;;;;;;15.43;14.23;;;6.60;95.10;;;;;;5074189;28;20482;-69
2021/04/24 01:57:42;;;;;;;13.80;13.10;;;6.50;95.10;;;;;;5074088;28;20874;-69
2021/04/24 02:00:12;;;;;;;23.63;14.50;;;6.50;95.10;;;;;;5073990;28;20463;-69
2021/04/24 02:02:38;;;;;;;14.00;13.30;;;6.50;95.10;;;;;;5074253;28;20447;-69
2021/04/24 02:05:06;;;;;;;16.20;15.10;;;6.50;94.90;;;;;;5074094;28;20439;-69
2021/04/24 02:07:32;;;;;;;13.60;12.90;;;6.40;95.10;;;;;;5073904;28;20435;-69
2021/04/24 02:09:59;;;;;;;14.60;13.80;;;6.40;95.10;;;;;;5073686;28;20475;-69
2021/04/24 02:12:25;;;;;;;15.40;14.30;;;6.40;95.00;;;;;;5073466;28;20439;-69
2021/04/24 02:14:54;;;;;;;14.17;13.23;;;6.40;94.70;;;;;;5073911;28;20479;-69
2021/04/24 02:17:24;;;;;;;14.00;13.20;;;6.30;94.80;;;;;;5073944;28;20921;-69
2021/04/24 02:19:51;;;;;;;14.70;13.77;;;6.30;94.60;;;;;;5073514;28;20463;-69
2021/04/24 02:22:18;;;;;;;15.57;14.27;;;6.30;94.60;;;;;;5073787;28;20439;-69
2021/04/24 02:24:46;;;;;;;15.17;13.70;;;6.20;94.70;;;;;;5073750;28;20418;-69
2021/04/24 02:27:13;;;;;;;14.23;13.07;;;6.30;94.50;;;;;;5073640;28;20436;-69
2021/04/24 02:29:40;;;;;;;14.77;13.90;;;6.20;94.70;;;;;;5073334;28;20447;-68
2021/04/24 02:32:10;;;;;;;15.10;14.00;;;6.20;94.50;;;;;;5073596;28;20497;-69
2021/04/24 02:34:37;;;;;;;15.07;13.93;;;6.20;94.50;;;;;;5073580;28;20843;-69
2021/04/24 02:37:04;;;;;;;13.80;13.20;;;6.10;94.50;;;;;;5073480;28;20440;-69
2021/04/24 02:39:31;;;;;;;15.93;14.47;;;6.10;94.40;;;;;;5073222;28;20485;-69
2021/04/24 02:41:58;;;;;;;13.67;12.87;;;6.00;94.60;;;;;;5073384;28;20443;-69
2021/04/24 02:44:24;;;;;;;13.93;13.20;;;6.00;94.60;;;;;;5073337;28;20443;-69
2021/04/24 02:46:50;;;;;;;14.03;13.30;;;6.00;94.60;;;;;;5073377;28;20439;-69
2021/04/24 02:49:17;;;;;;;14.67;13.87;;;5.90;94.60;;;;;;5073272;28;20450;-69
2021/04/24 02:51:43;;;;;;;14.30;13.27;;;5.90;95.00;;;;;;5073222;28;20474;-69
2021/04/24 02:54:10;;;;;;;13.97;13.17;;;5.90;95.10;;;;;;5073176;28;20506;-69
2021/04/24 02:56:36;;;;;;;14.53;13.63;;;5.80;95.40;;;;;;5073267;28;20460;-69
2021/04/24 02:59:03;;;;;;;14.17;13.37;;;5.80;95.80;;;;;;5072982;28;20418;-67
2021/04/24 03:01:29;;;;;;;14.63;13.63;;;5.80;96.20;;;;;;5073039;28;20466;-69
2021/04/24 03:03:55;;;;;;;14.67;13.87;;;5.70;96.50;;;;;;5073086;28;20446;-67
2021/04/24 03:06:22;;;;;;;14.43;13.63;;;5.70;96.90;;;;;;5073132;28;20447;-69
2021/04/24 03:08:49;;;;;;;15.17;14.30;;;5.60;97.20;;;;;;5072755;28;21028;-67
2021/04/24 03:11:15;;;;;;;13.83;12.90;;;5.60;97.40;;;;;;5072816;28;20479;-69
2021/04/24 03:13:41;;;;;;;14.40;13.37;;;5.50;98.20;;;;;;5072767;28;20443;-70
2021/04/24 03:16:07;;;;;;;14.07;13.17;;;5.50;98.30;;;;;;5072728;28;20433;-69
2021/04/24 03:18:34;;;;;;;14.73;13.93;;;5.50;97.90;;;;;;5072269;28;20446;-70
2021/04/24 03:21:00;;;;;;;16.13;14.93;;;5.40;98.40;;;;;;5072722;28;20470;-67
2021/04/24 03:23:27;;;;;;;14.77;13.93;;;5.40;99.50;;;;;;5071809;28;20439;-67
2021/04/24 03:25:53;;;;;;;15.53;14.43;;;5.40;99.50;;;;;;5072711;28;20475;-67
2021/04/24 03:28:19;;;;;;;14.27;13.57;;;5.30;99.60;;;;;;5072451;28;20447;-69
2021/04/24 03:30:45;;;;;;;15.37;14.40;;;5.30;99.70;;;;;;5072589;28;20851;-69
2021/04/24 03:33:12;;;;;;;14.83;13.77;;;5.20;99.90;;;;;;5072452;28;20505;-69
2021/04/24 03:35:38;;;;;;;14.80;13.90;;;5.20;99.90;;;;;;5074511;28;20479;-71
2021/04/24 03:38:04;;;;;;;14.70;13.60;;;5.10;99.90;;;;;;5074742;28;20443;-68
2021/04/24 03:40:31;;;;;;;14.37;13.43;;;5.10;99.90;;;;;;5075668;28;20471;-68
2021/04/24 03:42:57;;;;;;;14.90;14.00;;;5.10;99.90;;;;;;5077392;28;20976;-71
2021/04/24 03:45:24;;;;;;;15.13;14.00;;;5.10;99.90;;;;;;5078478;28;20446;-68
2021/04/24 03:47:51;;;;;;;13.87;13.17;;;5.10;99.90;;;;;;5078642;28;20503;-70
2021/04/24 03:50:18;;;;;;;14.33;13.37;;;5.10;99.90;;;;;;5078973;28;20841;-69
2021/04/24 03:52:45;;;;;;;14.40;13.50;;;5.10;99.90;;;;;;5078770;28;20957;-68
2021/04/24 03:55:13;;;;;;;14.23;13.53;;;5.10;99.90;;;;;;5078589;28;20644;-72
2021/04/24 03:57:40;;;;;;;15.63;14.53;;;5.20;99.90;;;;;;5078046;28;20456;-72
2021/04/24 04:00:07;;;;;;;14.90;13.97;;;5.20;99.90;;;;;;5079734;28;20467;-71
2021/04/24 04:02:48;;;;;;;17.67;16.23;;;5.20;99.90;;;;;;5076167;28;20451;-72
2021/04/24 04:05:15;;;;;;;16.47;15.47;;;5.20;99.90;;;;;;5075568;28;20446;-72
2021/04/24 04:07:41;;;;;;;15.10;14.30;;;5.20;99.90;;;;;;5075711;28;20443;-71
2021/04/24 04:10:09;;;;;;;15.63;14.57;;;5.20;99.90;;;;;;5076224;28;20475;-69
2021/04/24 04:12:35;;;;;;;15.70;14.60;;;5.30;99.90;;;;;;5071971;28;20447;-70
2021/04/24 04:15:03;;;;;;;15.83;14.67;;;5.30;99.90;;;;;;5071653;28;21009;-68
2021/04/24 04:17:30;;;;;;;15.00;14.20;;;5.30;99.90;;;;;;5071917;28;20496;-65
2021/04/24 04:19:56;;;;;;;15.40;14.43;;;5.30;99.90;;;;;;5071603;28;20480;-67
2021/04/24 04:22:22;;;;;;;14.90;13.80;;;5.30;99.90;;;;;;5071827;28;20810;-70
2021/04/24 04:24:48;;;;;;;14.43;13.53;;;5.30;99.90;;;;;;5071340;28;20804;-70
2021/04/24 04:27:15;;;;;;;15.77;14.83;;;5.30;99.90;;;;;;5071402;28;20785;-68
2021/04/24 04:29:41;;;;;;;16.03;14.83;;;5.30;99.90;;;;;;5071445;28;20474;-68
2021/04/24 04:32:08;;;;;;;14.70;13.90;;;5.30;99.90;;;;;;5071568;28;20439;-68
2021/04/24 04:34:34;;;;;;;14.90;14.00;;;5.30;99.90;;;;;;5071457;28;20479;-68
2021/04/24 04:37:01;;;;;;;15.70;14.50;;;5.30;99.90;;;;;;5071648;28;20444;-68
2021/04/24 04:39:28;;;;;;;16.40;15.20;;;5.30;99.90;;;;;;5071227;28;20462;-68
2021/04/24 04:41:54;;;;;;;15.17;14.27;;;5.30;99.90;;;;;;5071839;28;20482;-68
2021/04/24 04:44:20;;;;;;;15.80;14.83;;;5.40;99.90;;;;;;5071624;28;20447;-66
2021/04/24 04:46:46;;;;;;;15.37;14.20;;;5.40;99.90;;;;;;5071503;28;20454;-68
2021/04/24 04:49:13;;;;;;;15.03;14.30;;;5.40;99.90;;;;;;5071207;28;20871;-68
2021/04/24 04:51:39;;;;;;;15.70;14.90;;;5.40;99.90;;;;;;5071448;28;20466;-68
2021/04/24 04:54:06;;;;;;;15.07;14.27;;;5.50;99.90;;;;;;5071364;28;20479;-69
2021/04/24 04:56:32;;;;;;;16.30;15.30;;;5.50;99.90;;;;;;5071472;28;20800;-66
2021/04/24 04:58:58;;;;;;;15.10;14.30;;;5.60;99.90;;;;;;5071233;28;20439;-66
2021/04/24 05:01:24;;;;;;;15.10;14.10;;;5.60;99.90;;;;;;5071323;28;20437;-66
2021/04/24 05:03:51;;;;;;;18.63;17.13;;;5.60;99.90;;;;;;5071397;28;20477;-67
2021/04/24 05:06:18;;;;;;;15.90;14.70;;;5.70;99.60;;;;;;5071398;28;20439;-69
2021/04/24 05:08:44;;;;;;;15.90;15.00;;;5.70;99.60;;;;;;5065928;28;21255;-67
2021/04/24 05:11:11;;;;;;;15.07;14.27;;;5.80;99.60;;;;;;5059561;28;21198;-70
2021/04/24 05:13:38;;;;;;;14.77;14.07;;;5.80;99.50;;;;;;5059551;28;20443;-68
2021/04/24 05:16:04;;;;;;;15.57;14.40;;;5.80;99.20;;;;;;5059575;28;20458;-66
2021/04/24 05:18:30;;;;;;;14.83;13.93;;;5.90;99.00;;;;;;5059443;28;21350;-68
2021/04/24 05:20:57;;;;;;;14.77;13.77;;;6.00;98.50;;;;;;5059252;28;20548;-66
2021/04/24 05:23:24;;;;;;;16.00;14.73;;;6.00;98.20;;;;;;5059531;28;20443;-66
2021/04/24 05:25:50;;;;;;;18.17;15.70;;;6.10;98.10;;;;;;5059408;28;20439;-66
2021/04/24 05:28:16;;;;;;;15.73;14.90;;;6.20;97.90;;;;;;5059228;28;20443;-66
2021/04/24 05:30:42;;;;;;;16.27;15.27;;;6.20;97.40;;;;;;5059293;28;20888;-65
2021/04/24 05:33:09;;;;;;;16.73;15.73;;;6.30;97.20;;;;;;5059283;28;21244;-66
2021/04/24 05:35:35;;;;;;;15.27;14.57;;;6.40;97.00;;;;;;5059195;28;20482;-67
2021/04/24 05:38:01;;;;;;;15.20;14.30;;;6.50;96.60;;;;;;5059057;28;20953;-65
2021/04/24 05:40:28;;;;;;;16.63;15.50;;;6.60;96.40;;;;;;5059609;28;20467;-69
2021/04/24 05:42:54;;;;;;;15.13;14.13;;;6.70;96.30;;;;;;5059192;28;20447;-67
2021/04/24 05:45:21;;;;;;;16.53;15.30;;;6.80;95.70;;;;;;5059308;28;20443;-68
2021/04/24 05:47:49;;;;;;;16.50;15.60;;;6.90;95.70;;;;;;5061109;28;20447;-69
2021/04/24 05:50:19;;;;;;;16.57;15.70;;;7.00;95.30;;;;;;5058069;28;21128;-66
2021/04/24 05:52:45;;;;;;;17.80;16.20;;;7.10;95.40;;;;;;5062386;28;20434;-66
2021/04/24 05:55:13;;;;;;;15.10;14.30;;;7.20;95.30;;;;;;5062454;28;20485;-65
2021/04/24 05:57:40;;;;;;;16.90;15.80;;;7.30;95.10;;;;;;5062013;28;20968;-66
2021/04/24 06:00:09;;;;;;;17.00;15.67;;;7.40;94.70;;;;;;5061289;28;20479;-66
2021/04/24 06:02:36;;;;;;;15.80;14.90;;;7.50;94.40;;;;;;5063436;28;20447;-67
2021/04/24 06:05:03;;;;;;;15.47;14.60;;;7.80;94.30;;;;;;5065246;28;20443;-67
2021/04/24 06:07:30;;;;;;;16.40;15.27;;;7.80;93.80;;;;;;5065436;28;20447;-66
2021/04/24 06:09:56;;;;;;;17.03;15.93;;;7.80;93.20;;;;;;5065439;28;20479;-65
2021/04/24 06:12:22;;;;;;;16.97;15.90;;;8.00;92.80;;;;;;5063123;28;20801;-67
2021/04/24 06:14:49;;;;;;;15.47;14.57;;;8.10;92.60;;;;;;5064247;28;21094;-67
2021/04/24 06:17:15;;;;;;;15.30;14.43;;;8.30;92.50;;;;;;5062756;28;20447;-67
2021/04/24 06:19:41;;;;;;;16.63;15.50;;;8.40;91.70;;;;;;5062033;28;20840;-67
2021/04/24 06:22:08;;;;;;;17.23;15.87;;;8.50;91.60;;;;;;5062188;28;20443;-66
2021/04/24 06:24:34;;;;;;;18.23;16.83;;;8.70;91.50;;;;;;5062181;28;20443;-66
2021/04/24 06:27:00;;;;;;;16.70;15.63;;;8.70;90.50;;;;;;5062136;28;20447;-66
2021/04/24 06:29:26;;;;;;;17.07;15.87;;;8.80;90.50;;;;;;5061807;28;20443;-65
2021/04/24 06:31:53;;;;;;;18.43;17.10;;;8.90;90.00;;;;;;5062033;28;20447;-66
2021/04/24 06:34:19;;;;;;;17.77;16.60;;;9.00;90.00;;;;;;5062022;28;21022;-66
2021/04/24 06:36:46;;;;;;;16.90;16.00;;;9.10;88.90;;;;;;5062055;28;20439;-65
2021/04/24 06:39:12;;;;;;;18.23;17.00;;;9.00;88.40;;;;;;5061744;28;20458;-65
2021/04/24 06:41:38;;;;;;;18.80;17.50;;;9.10;88.70;;;;;;5061895;28;20492;-66
2021/04/24 06:44:05;;;;;;;17.27;16.27;;;9.10;89.20;;;;;;5062794;28;20816;-66
2021/04/24 06:46:31;;;;;;;17.07;15.87;;;9.40;89.40;;;;;;5062697;28;20507;-66
2021/04/24 06:48:58;;;;;;;16.20;15.40;;;9.60;88.30;;;;;;5063008;28;20446;-66
2021/04/24 06:51:25;;;;;;;17.67;16.30;;;9.60;86.60;;;;;;5061670;28;20470;-66
2021/04/24 06:53:51;;;;;;;16.90;15.73;;;9.70;86.70;;;;;;5061626;28;20516;-66
2021/04/24 06:56:17;;;;;;;16.97;15.97;;;9.70;85.80;;;;;;5061615;28;20443;-66
2021/04/24 06:58:44;;;;;;;17.13;16.13;;;9.90;84.00;;;;;;5061180;28;21663;-66
2021/04/24 07:01:10;;;;;;;16.10;15.20;;;10.00;80.70;;;;;;5061477;28;20467;-65
2021/04/24 07:03:37;;;;;;;17.30;16.30;;;9.80;81.40;;;;;;5061451;28;20860;-66
2021/04/24 07:06:04;;;;;;;17.23;16.00;;;9.90;82.40;;;;;;5061383;28;20447;-66
2021/04/24 07:08:30;;;;;;;17.33;16.33;;;10.00;80.50;;;;;;5061010;28;20443;-66
2021/04/24 07:10:56;;;;;;;18.37;16.73;;;10.00;80.10;;;;;;5061078;28;20482;-65
2021/04/24 07:13:23;;;;;;;16.75;15.75;;;10.00;79.40;;;;;;5060653;28;20438;-67
2021/04/24 07:15:49;;;;;;;17.77;16.80;;;10.00;80.60;;;;;;5061182;28;20290;-65
2021/04/24 07:18:16;;;;;;;17.53;16.50;;;10.00;80.50;;;;;;5060888;28;20451;-66
2021/04/24 07:20:42;;;;;;;18.70;17.40;;;10.10;79.60;;;;;;5060965;28;20463;-65
2021/04/24 07:23:09;;;;;;;17.07;16.17;;;10.10;78.70;;;;;;5061049;28;20451;-65
2021/04/24 07:25:36;;;;;;;17.10;16.10;;;10.10;78.30;;;;;;5060867;28;20444;-66
2021/04/24 07:28:02;;;;;;;17.70;16.20;;;10.20;76.70;;;;;;5060674;28;20447;-66
2021/04/24 07:30:29;;;;;;;17.80;16.70;;;10.10;76.90;;;;;;5060578;28;20478;-66
2021/04/24 07:32:56;;;;;;;17.50;16.23;;;10.00;77.50;;;;;;5060735;28;20455;-67
2021/04/24 07:35:22;;;;;;;16.43;15.63;;;10.10;77.30;;;;;;5060574;28;20482;-65
2021/04/24 07:37:48;;;;;;;16.43;15.63;;;10.20;77.30;;;;;;5060618;28;20444;-65
2021/04/24 07:40:16;;;;;;;17.50;16.40;;;10.10;76.20;;;;;;5060434;28;21086;-68
2021/04/24 07:42:42;;;;;;;17.03;16.23;;;10.10;75.90;;;;;;5060722;28;20508;-65
2021/04/24 07:45:10;;;;;;;17.27;16.37;;;10.10;73.90;;;;;;5060515;28;20446;-66
2021/04/24 07:47:36;;;;;;;17.33;16.33;;;10.20;74.90;;;;;;5059478;28;20462;-67
2021/04/24 07:50:02;;;;;;;17.97;16.70;;;10.20;74.70;;;;;;5020528;28;20531;-66
2021/04/24 07:52:29;;;;;;;16.93;15.80;;;10.30;75.50;;;;;;5020607;28;21232;-66
2021/04/24 07:54:55;;;;;;;18.07;16.70;;;10.40;74.40;;;;;;5020538;28;21081;-66
2021/04/24 07:57:22;;;;;;;17.70;16.70;;;10.60;75.70;;;;;;5025531;28;20452;-65
2021/04/24 07:59:49;;;;;;;17.10;16.10;;;10.70;73.10;;;;;;5040075;28;20460;-64
2021/04/24 08:02:15;;;;;;;17.77;16.67;;;10.50;72.20;;;;;;5040395;28;21112;-66
2021/04/24 08:04:41;;;;;;;16.63;15.73;;;10.70;75.10;;;;;;5040395;28;20451;-65
2021/04/24 08:07:09;;;;;;;17.37;16.37;;;10.80;73.60;;;;;;5040593;28;20456;-65
2021/04/24 08:09:35;;;;;;;18.77;17.77;;;11.10;73.00;;;;;;5039275;28;20452;-66
2021/04/24 08:12:02;;;;;;;19.13;18.13;;;11.10;70.10;;;;;;5040532;28;20459;-64
2021/04/24 08:14:29;;;;;;;18.30;17.13;;;11.20;70.10;;;;;;5040235;28;20487;-65
2021/04/24 08:16:55;;;;;;;16.80;15.90;;;11.20;69.00;;;;;;5040223;28;20478;-65
2021/04/24 08:19:23;;;;;;;18.23;17.23;;;11.20;67.90;;;;;;5039803;28;20443;-64
2021/04/24 08:21:50;;;;;;;18.20;17.00;;;11.30;67.30;;;;;;5040092;28;20454;-66
2021/04/24 08:24:16;;;;;;;18.60;17.30;;;11.50;66.90;;;;;;5040322;28;20440;-64
2021/04/24 08:26:43;;;;;;;17.73;16.83;;;11.50;67.50;;;;;;5040260;28;20440;-65
2021/04/24 08:29:09;;;;;;;17.10;16.20;;;11.40;66.30;;;;;;5039754;28;20460;-64
2021/04/24 08:31:39;;;;;;;16.57;15.87;;;11.10;65.20;;;;;;5040105;28;20472;-66
2021/04/24 08:34:05;;;;;;;17.07;16.20;;;11.10;66.40;;;;;;5039898;28;20622;-66
2021/04/24 08:36:31;;;;;;;17.90;16.67;;;11.20;67.60;;;;;;5039959;28;20866;-65
2021/04/24 08:38:58;;;;;;;16.30;15.50;;;11.10;67.40;;;;;;5039666;28;20455;-65
2021/04/24 08:41:24;;;;;;;19.97;18.30;;;11.00;68.70;;;;;;5039860;28;20468;-66
2021/04/24 08:43:55;;;;;;;19.67;18.53;;;11.20;68.50;;;;;;5039846;28;20444;-66
2021/04/24 08:46:22;;;;;;;18.00;16.90;;;11.40;66.10;;;;;;5039923;28;20451;-66
2021/04/24 08:48:50;;;;;;;18.00;17.00;;;11.40;65.50;;;;;;5039580;28;21302;-66
2021/04/24 08:51:17;;;;;;;17.10;16.30;;;11.40;65.50;;;;;;5039722;28;21190;-66
2021/04/24 08:53:43;;;;;;;18.40;17.17;;;11.30;65.10;;;;;;5039766;28;20451;-66
2021/04/24 08:56:09;;;;;;;18.37;17.47;;;11.20;66.10;;;;;;5039588;28;20484;-66
2021/04/24 08:58:35;;;;;;;18.57;17.37;;;11.30;67.10;;;;;;5039593;28;20472;-67
2021/04/24 09:01:01;;;;;;;17.10;16.23;;;11.50;66.30;;;;;;5039529;28;20498;-67
2021/04/24 09:03:28;;;;;;;17.87;16.50;;;11.70;64.40;;;;;;5040310;28;20443;-66
2021/04/24 09:05:55;;;;;;;16.40;15.57;;;12.00;64.10;;;;;;5041832;28;20465;-66
2021/04/24 09:08:23;;;;;;;18.30;17.27;;;11.90;61.30;;;;;;5057942;28;20459;-65
2021/04/24 09:10:51;;;;;;;18.27;17.17;;;11.90;60.60;;;;;;5039725;28;20507;-69
2021/04/24 09:13:19;;;;;;;18.57;17.20;;;12.10;62.40;;;;;;5039515;28;20444;-66
2021/04/24 09:15:46;;;;;;;17.93;16.73;;;12.30;61.90;;;;;;5039485;28;20480;-65
2021/04/24 09:18:13;;;;;;;17.40;16.20;;;12.30;59.50;;;;;;5039231;28;20546;-65
2021/04/24 09:20:48;;;;;;;16.90;16.00;;;12.40;59.40;;;;;;5039364;28;20471;-65
2021/04/24 09:23:17;;;;;;;16.80;15.90;;;12.30;58.70;;;;;;5042213;28;20537;-67
2021/04/24 09:25:46;;;;;;;16.80;15.90;;;12.30;58.50;;;;;;5043235;28;20547;-65
2021/04/24 09:28:23;;;;;;;15.83;15.13;;;12.40;57.90;;;;;;5043113;28;21238;-65
2021/04/24 09:30:50;;;;;;;15.60;14.90;;;12.70;58.30;;;;;;5043120;28;20476;-65
2021/04/24 09:33:16;;;;;;;15.80;14.90;;;12.60;57.90;;;;;;5043067;28;20448;-64
2021/04/24 09:35:46;;;;;;;17.23;16.33;;;12.70;58.00;;;;;;5043331;28;20494;-64
2021/04/24 09:38:18;;;;;;;16.57;15.67;;;12.70;57.40;;;;;;5042774;28;20448;-66
2021/04/24 09:41:04;;;;;;;18.50;17.30;;;12.80;56.60;;;;;;5042936;28;20460;-65
2021/04/24 09:43:55;;;;;;;17.20;16.10;;;12.80;56.70;;;;;;5043029;28;20801;-65
2021/04/24 09:46:22;;;;;;;17.13;16.13;;;13.20;57.90;;;;;;5042837;28;20450;-64
2021/04/24 09:48:48;;;;;;;16.97;16.17;;;13.40;56.60;;;;;;5042876;28;20452;-65
2021/04/24 09:51:17;;;;;;;18.03;17.13;;;13.20;55.90;;;;;;5042873;28;20463;-64
2021/04/24 09:53:54;;;;;;;17.77;16.87;;;13.60;55.40;;;;;;5042784;28;20448;-64
2021/04/24 09:56:20;;;;;;;17.03;16.10;;;13.30;52.60;;;;;;5042796;28;20521;-64
2021/04/24 09:58:47;;;;;;;18.23;17.20;;;13.30;52.10;;;;;;5042288;28;20456;-66
2021/04/24 10:01:21;;;;;;;16.93;16.00;;;13.30;52.80;;;;;;5042447;28;21115;-65
2021/04/24 10:03:49;;;;;;;18.73;17.40;;;13.60;52.70;;;;;;5042381;28;20459;-66
2021/04/24 10:06:24;;;;;;;18.10;17.20;;;13.80;51.10;;;;;;5042510;28;20555;-66
2021/04/24 10:08:51;;;;;;;18.40;17.20;;;13.90;52.20;;;;;;5042357;28;20444;-64
2021/04/24 10:11:27;;;;;;;20.10;19.00;;;14.30;51.20;;;;;;5042807;28;20487;-65
2021/04/24 10:13:53;;;;;;;19.70;18.30;;;14.40;51.70;;;;;;5042401;28;20476;-65
2021/04/24 10:16:43;;;;;;;18.60;17.60;;;14.70;51.30;;;;;;5042185;28;20515;-65
2021/04/24 10:19:12;;;;;;;19.70;18.63;;;14.90;50.50;;;;;;5039336;28;20974;-68
2021/04/24 10:21:39;;;;;;;19.87;18.87;;;14.90;49.30;;;;;;5042261;28;20471;-65
2021/04/24 10:24:06;;;;;;;19.67;18.53;;;14.90;49.70;;;;;;5042343;28;20502;-66
2021/04/24 10:26:35;;;;;;;19.70;18.60;;;15.00;50.00;;;;;;5042168;28;20514;-65
2021/04/24 10:29:03;;;;;;;20.07;18.50;;;15.20;49.80;;;;;;5041823;28;21258;-64
2021/04/24 10:31:30;;;;;;;19.77;18.77;;;15.50;49.90;;;;;;5041978;28;20469;-64
2021/04/24 10:33:59;;;;;;;20.60;19.03;;;16.10;49.30;;;;;;5041652;28;20451;-65
2021/04/24 10:36:25;;;;;;;21.47;20.27;;;16.60;47.90;;;;;;5042088;28;20488;-65
2021/04/24 10:38:53;;;;;;;21.80;20.53;;;17.10;46.70;;;;;;5041649;28;20451;-65
2021/04/24 10:41:27;;;;;;;21.77;20.47;;;16.60;45.30;;;;;;5041840;28;20480;-65
2021/04/24 10:44:03;;;;;;;20.60;19.20;;;16.40;45.60;;;;;;5041841;28;20509;-66
2021/04/24 10:46:33;;;;;;;20.20;19.10;;;16.70;45.30;;;;;;5042181;28;20444;-66
2021/04/24 10:49:26;;;;;;;19.00;17.87;;;16.50;43.50;;;;;;5041631;28;20448;-65
2021/04/24 10:51:58;;;;;;;19.60;18.60;;;16.10;45.00;;;;;;5042176;28;20459;-65
2021/04/24 10:54:26;;;;;;;17.90;16.90;;;16.10;44.30;;;;;;5041677;28;20459;-65
2021/04/24 10:56:52;;;;;;;18.30;17.30;;;16.40;44.80;;;;;;5041628;28;20455;-65
2021/04/24 10:59:21;;;;;;;18.30;17.23;;;16.90;44.30;;;;;;5041440;28;21016;-65
2021/04/24 11:02:17;;;;;;;19.33;18.13;;;17.00;43.40;;;;;;5041630;28;20448;-65
2021/04/24 11:04:49;;;;;;;17.40;16.60;;;16.90;42.50;;;;;;4998745;28;20516;-65
2021/04/24 11:07:17;;;;;;;17.07;16.27;;;17.70;42.70;;;;;;5033131;28;20456;-65
2021/04/24 11:09:44;;;;;;;20.00;19.00;;;18.90;41.70;;;;;;5041219;28;21150;-66
2021/04/24 11:12:11;;;;;;;19.33;18.43;;;19.30;39.20;;;;;;5041324;28;20888;-65
2021/04/24 11:14:40;;;;;;;18.03;17.20;;;19.70;39.00;;;;;;5041183;28;20483;-65
2021/04/24 11:17:08;;;;;;;18.73;17.70;;;20.30;38.30;;;;;;5041190;28;20451;-66
2021/04/24 11:19:41;;;;;;;17.80;16.90;;;20.00;38.10;;;;;;5040853;28;20517;-65
2021/04/24 11:22:31;;;;;;;19.30;18.40;;;20.60;36.10;;;;;;5041227;28;20914;-64
2021/04/24 11:25:27;;;;;;;19.10;18.30;;;20.40;35.40;;;;;;5038536;28;20448;-65
2021/04/24 11:28:05;;;;;;;18.87;18.07;;;21.60;35.10;;;;;;5040713;28;20447;-65
2021/04/24 11:30:53;;;;;;;18.80;17.90;;;22.80;34.50;;;;;;5040851;28;21133;-65
2021/04/24 11:33:33;;;;;;;18.23;17.33;;;24.20;32.90;;;;;;5041209;28;20463;-65
2021/04/24 11:36:20;;;;;;;17.53;16.73;;;25.60;30.80;;;;;;5040834;28;20483;-65
2021/04/24 11:39:07;;;;;;;17.80;16.80;;;27.20;28.70;;;;;;5040662;28;20463;-66
2021/04/24 11:41:34;;;;;;;17.87;16.97;;;28.90;26.70;;;;;;5040495;28;20464;-66
2021/04/24 11:44:24;;;;;;;17.07;16.27;;;28.10;26.50;;;;;;5040463;28;20448;-66
2021/04/24 11:46:53;;;;;;;18.60;17.50;;;28.30;25.80;;;;;;5040549;28;21006;-66
2021/04/24 11:49:21;;;;;;;17.37;16.50;;;29.10;25.80;;;;;;5040315;28;20529;-67
2021/04/24 11:51:51;;;;;;;19.20;18.10;;;27.90;24.10;;;;;;5040632;28;20499;-67
2021/04/24 11:54:26;;;;;;;18.57;17.60;;;26.70;26.10;;;;;;5040684;28;20459;-66
2021/04/24 11:56:53;;;;;;;17.70;16.80;;;30.10;26.50;;;;;;5040634;28;20452;-66
2021/04/24 11:59:21;;;;;;;17.10;16.50;;;31.20;24.20;;;;;;5040176;28;20460;-67
2021/04/24 12:01:47;;;;;;;17.57;16.90;;;30.50;23.00;;;;;;5040318;28;20443;-67
2021/04/24 12:04:25;;;;;;;18.73;17.90;;;31.00;22.60;;;;;;5040408;28;20517;-67
2021/04/24 12:07:04;;;;;;;17.57;16.90;;;32.20;22.00;;;;;;5040425;28;20448;-67
2021/04/24 12:09:30;;;;;;;18.23;17.43;;;31.50;21.50;;;;;;5039855;28;20447;-66
2021/04/24 12:11:58;;;;;;;17.90;17.20;;;31.50;21.40;;;;;;5040350;28;20455;-66
2021/04/24 12:14:25;;;;;;;18.97;18.17;;;29.60;22.00;;;;;;5040044;28;20487;-67
2021/04/24 12:16:52;;;;;;;18.00;17.30;;;30.40;22.50;;;;;;5040554;28;20455;-67
2021/04/24 12:19:39;;;;;;;17.77;17.10;;;33.00;22.50;;;;;;5040196;28;20454;-66
2021/04/24 12:22:18;;;;;;;17.83;17.13;;;31.80;20.90;;;;;;5040286;28;20451;-67
2021/04/24 12:24:55;;;;;;;18.47;17.50;;;33.30;20.80;;;;;;5040019;28;20474;-67
2021/04/24 12:27:23;;;;;;;18.70;17.90;;;35.20;19.90;;;;;;5039869;28;20498;-66
2021/04/24 12:29:51;;;;;;;17.05;16.45;;;37.40;18.90;;;;;;5039587;28;20228;-68
2021/04/24 12:32:19;;;;;;;18.60;17.85;;;37.90;18.40;;;;;;5039795;28;20215;-66
2021/04/24 12:34:47;;;;;;;18.20;17.50;;;36.80;17.10;;;;;;5039861;28;20225;-66
2021/04/24 12:37:17;;;;;;;18.17;17.58;;;36.00;17.30;;;;;;5039755;28;20212;-65